createdAt,value
2018-06-01T00:00:45.041Z,15.40
2018-06-01T00:03:12.587Z,15.30
2018-06-01T00:05:40.130Z,15.30
2018-06-01T00:08:08.453Z,15.30
2018-06-01T00:10:36.021Z,15.30
2018-06-01T00:13:03.568Z,15.40
2018-06-01T00:15:31.137Z,15.40
2018-06-01T00:17:58.683Z,15.40
2018-06-01T00:20:26.233Z,15.40
2018-06-01T00:22:53.806Z,15.40
2018-06-01T00:25:21.351Z,15.50
2018-06-01T00:27:48.912Z,15.60
2018-06-01T00:30:16.457Z,15.60
2018-06-01T00:32:44.029Z,15.60
2018-06-01T00:35:11.567Z,15.60
2018-06-01T00:37:39.128Z,15.60
2018-06-01T00:40:06.670Z,15.50
2018-06-01T00:42:34.984Z,15.60
2018-06-01T00:45:02.561Z,15.60
2018-06-01T00:47:30.109Z,15.50
2018-06-01T00:49:57.673Z,15.60
2018-06-01T00:52:25.221Z,15.60
2018-06-01T00:55:04.561Z,15.60
2018-06-01T00:57:32.103Z,15.70
2018-06-01T00:59:59.658Z,15.70
2018-06-01T01:02:27.230Z,15.60
2018-06-01T01:04:54.764Z,15.70
2018-06-01T01:07:23.101Z,15.60
2018-06-01T01:09:50.649Z,15.60
2018-06-01T01:12:18.213Z,15.60
2018-06-01T01:14:45.755Z,15.50
2018-06-01T01:17:13.296Z,15.50
2018-06-01T01:19:40.864Z,15.40
2018-06-01T01:22:08.405Z,15.50
2018-06-01T01:24:35.970Z,15.50
2018-06-01T01:27:03.513Z,15.50
2018-06-01T01:29:31.850Z,15.40
2018-06-01T01:31:59.403Z,15.40
2018-06-01T01:34:26.945Z,15.40
2018-06-01T01:36:54.505Z,15.30
2018-06-01T01:39:22.042Z,15.30
2018-06-01T01:41:49.605Z,15.20
2018-06-01T01:44:17.148Z,15.20
2018-06-01T01:46:44.721Z,15.20
2018-06-01T01:49:12.272Z,15.30
2018-06-01T01:51:39.822Z,15.30
2018-06-01T01:54:08.155Z,15.30
2018-06-01T01:56:35.691Z,15.30
2018-06-01T01:59:03.276Z,15.20
2018-06-01T02:01:30.821Z,15.20
2018-06-01T02:03:58.353Z,15.20
2018-06-01T02:06:26.686Z,15.20
2018-06-01T02:08:54.230Z,15.20
2018-06-01T02:11:21.799Z,15.30
2018-06-01T02:13:49.351Z,15.30
2018-06-01T02:16:16.901Z,15.20
2018-06-01T02:18:44.465Z,15.20
2018-06-01T02:21:12.016Z,15.20
2018-06-01T02:23:39.589Z,15.20
2018-06-01T02:26:07.130Z,15.20
2018-06-01T02:28:34.710Z,15.20
2018-06-01T02:31:02.264Z,15.20
2018-06-01T02:33:29.813Z,15.10
2018-06-01T02:35:57.383Z,15.10
2018-06-01T02:38:24.951Z,15.10
2018-06-01T02:40:52.493Z,14.90
2018-06-01T02:43:20.067Z,14.90
2018-06-01T02:45:47.615Z,14.90
2018-06-01T02:48:15.197Z,14.80
2018-06-01T02:50:42.730Z,14.80
2018-06-01T02:53:10.298Z,14.80
2018-06-01T02:55:37.837Z,14.80
2018-06-01T02:58:05.397Z,14.70
2018-06-01T03:00:32.941Z,14.70
2018-06-01T03:03:00.513Z,14.60
2018-06-01T03:05:28.063Z,14.60
2018-06-01T03:07:55.632Z,14.50
2018-06-01T03:10:23.196Z,14.50
2018-06-01T03:12:50.748Z,14.50
2018-06-01T03:15:18.291Z,14.40
2018-06-01T03:17:45.857Z,14.40
2018-06-01T03:20:13.410Z,14.40
2018-06-01T03:22:40.971Z,14.40
2018-06-01T03:25:08.515Z,14.40
2018-06-01T03:27:36.083Z,14.40
2018-06-01T03:30:03.633Z,14.40
2018-06-01T03:32:31.997Z,14.40
2018-06-01T03:35:00.318Z,14.40
2018-06-01T03:37:27.889Z,14.40
2018-06-01T03:39:55.436Z,14.40
2018-06-01T03:42:23.015Z,14.40
2018-06-01T03:44:50.563Z,14.40
2018-06-01T03:47:18.134Z,14.40
2018-06-01T03:49:45.675Z,14.40
2018-06-01T03:52:13.255Z,14.40
2018-06-01T03:54:40.794Z,14.40
2018-06-01T03:57:08.347Z,14.40
2018-06-01T03:59:35.889Z,14.40
2018-06-01T04:02:03.458Z,14.40
2018-06-01T04:04:31.001Z,14.40
2018-06-01T04:06:59.334Z,14.40
2018-06-01T04:09:28.747Z,14.40
2018-06-01T04:11:56.314Z,14.50
2018-06-01T04:14:23.849Z,14.50
2018-06-01T04:16:51.422Z,14.50
2018-06-01T04:19:18.964Z,14.60
2018-06-01T04:21:47.307Z,14.60
2018-06-01T04:27:07.485Z,14.60
2018-06-01T04:29:35.812Z,14.70
2018-06-01T04:32:03.387Z,14.70
2018-06-01T04:34:30.929Z,14.80
2018-06-01T04:36:58.493Z,14.80
2018-06-01T04:39:26.047Z,14.80
2018-06-01T04:41:53.595Z,14.90
2018-06-01T04:44:21.159Z,14.90
2018-06-01T04:46:48.718Z,14.90
2018-06-01T04:49:16.307Z,14.90
2018-06-01T04:51:43.867Z,15.00
2018-06-01T04:54:11.535Z,15.00
2018-06-01T04:56:39.098Z,15.10
2018-06-01T04:59:06.641Z,15.10
2018-06-01T05:01:34.210Z,15.00
2018-06-01T05:04:01.761Z,15.30
2018-06-01T05:06:29.314Z,15.30
2018-06-01T05:08:56.887Z,15.40
2018-06-01T05:11:24.421Z,15.40
2018-06-01T05:13:51.994Z,15.50
2018-06-01T05:16:19.538Z,15.60
2018-06-01T05:18:47.076Z,15.60
2018-06-01T05:21:14.657Z,15.60
2018-06-01T05:23:42.209Z,15.70
2018-06-01T05:26:09.794Z,15.80
2018-06-01T05:28:37.343Z,15.90
2018-06-01T05:31:04.899Z,16.00
2018-06-01T05:33:32.481Z,16.00
2018-06-01T05:36:01.553Z,17.00
2018-06-01T05:38:29.138Z,16.90
2018-06-01T05:40:56.691Z,17.70
2018-06-01T05:43:24.235Z,18.50
2018-06-01T05:45:51.809Z,19.00
2018-06-01T05:48:19.355Z,19.60
2018-06-01T05:50:46.926Z,20.40
2018-06-01T05:53:14.465Z,20.70
2018-06-01T05:55:42.008Z,20.90
2018-06-01T05:58:09.579Z,21.40
2018-06-01T06:00:37.134Z,21.80
2018-06-01T06:03:04.701Z,21.70
2018-06-01T06:05:32.257Z,21.80
2018-06-01T06:07:59.798Z,21.60
2018-06-01T06:10:27.365Z,21.40
2018-06-01T06:12:54.907Z,21.50
2018-06-01T06:15:23.333Z,21.90
2018-06-01T06:17:50.937Z,21.90
2018-06-01T06:20:18.477Z,22.00
2018-06-01T06:22:46.042Z,22.00
2018-06-01T06:25:13.590Z,22.40
2018-06-01T06:27:41.163Z,22.50
2018-06-01T06:30:09.487Z,22.00
2018-06-01T06:32:37.129Z,22.00
2018-06-01T06:35:04.721Z,21.70
2018-06-01T06:37:33.218Z,21.60
2018-06-01T06:40:00.786Z,21.60
2018-06-01T06:42:28.339Z,21.70
2018-06-01T06:44:55.907Z,21.60
2018-06-01T06:47:23.450Z,21.60
2018-06-01T06:49:51.029Z,21.10
2018-06-01T06:52:18.589Z,20.80
2018-06-01T06:54:46.125Z,20.60
2018-06-01T06:57:13.685Z,20.50
2018-06-01T06:59:41.222Z,20.30
2018-06-01T07:02:08.781Z,19.70
2018-06-01T07:04:36.345Z,19.70
2018-06-01T07:07:03.896Z,19.60
2018-06-01T07:09:31.465Z,19.50
2018-06-01T07:11:59.014Z,19.40
2018-06-01T07:14:26.561Z,19.40
2018-06-01T07:16:54.154Z,19.20
2018-06-01T07:19:21.695Z,19.30
2018-06-01T07:21:49.259Z,19.50
2018-06-01T07:24:16.821Z,19.70
2018-06-01T07:26:44.367Z,19.60
2018-06-01T07:29:11.934Z,19.70
2018-06-01T07:31:39.478Z,20.10
2018-06-01T07:34:07.051Z,20.20
2018-06-01T07:36:34.604Z,20.40
2018-06-01T07:39:02.194Z,20.40
2018-06-01T07:41:29.743Z,20.60
2018-06-01T07:43:57.280Z,20.50
2018-06-01T07:46:24.885Z,20.60
2018-06-01T07:48:52.445Z,20.40
2018-06-01T07:51:20.037Z,20.20
2018-06-01T07:53:48.347Z,20.60
2018-06-01T07:56:15.893Z,20.60
2018-06-01T07:58:43.461Z,20.60
2018-06-01T08:01:11.001Z,20.70
2018-06-01T08:03:38.613Z,20.70
2018-06-01T08:06:06.137Z,20.60
2018-06-01T08:08:34.613Z,20.90
2018-06-01T08:11:02.179Z,21.30
2018-06-01T08:13:29.725Z,21.70
2018-06-01T08:16:04.562Z,21.70
2018-06-01T08:18:32.103Z,21.20
2018-06-01T08:20:59.685Z,20.70
2018-06-01T08:23:27.235Z,20.40
2018-06-01T08:25:54.777Z,20.60
2018-06-01T08:28:38.500Z,20.70
2018-06-01T08:31:09.798Z,20.70
2018-06-01T08:33:37.356Z,21.00
2018-06-01T08:36:05.077Z,21.20
2018-06-01T08:38:32.662Z,21.30
2018-06-01T08:41:00.239Z,21.20
2018-06-01T08:43:27.789Z,21.20
2018-06-01T08:45:55.366Z,21.00
2018-06-01T08:48:22.909Z,21.00
2018-06-01T08:50:50.451Z,21.10
2018-06-01T08:53:18.787Z,21.10
2018-06-01T08:55:46.330Z,21.10
2018-06-01T08:58:14.665Z,21.50
2018-06-01T09:00:42.979Z,21.70
2018-06-01T09:03:16.204Z,21.60
2018-06-01T09:05:43.777Z,21.70
2018-06-01T09:08:32.124Z,21.20
2018-06-01T09:11:00.462Z,21.30
2018-06-01T09:13:28.005Z,21.20
2018-06-01T09:15:55.572Z,21.10
2018-06-01T09:18:23.143Z,21.10
2018-06-01T09:20:50.721Z,21.00
2018-06-01T09:23:26.186Z,20.60
2018-06-01T09:25:54.527Z,20.50
2018-06-01T09:28:22.080Z,20.40
2018-06-01T09:30:49.637Z,20.50
2018-06-01T09:33:17.205Z,20.50
2018-06-01T09:35:44.752Z,20.70
2018-06-01T09:38:12.329Z,20.90
2018-06-01T09:40:39.890Z,20.90
2018-06-01T09:43:07.452Z,20.90
2018-06-01T09:45:35.017Z,20.80
2018-06-01T09:48:02.567Z,20.70
2018-06-01T09:50:30.140Z,20.90
2018-06-01T09:52:58.612Z,21.10
2018-06-01T09:55:26.218Z,21.40
2018-06-01T09:57:55.110Z,21.80
2018-06-01T10:00:35.126Z,21.80
2018-06-01T10:03:02.707Z,22.00
2018-06-01T10:05:31.023Z,22.60
2018-06-01T10:07:58.618Z,22.60
2018-06-01T10:10:31.846Z,23.20
2018-06-01T10:12:59.443Z,23.30
2018-06-01T10:15:26.985Z,23.70
2018-06-01T10:17:54.537Z,24.10
2018-06-01T10:20:25.101Z,23.90
2018-06-01T10:22:52.645Z,24.20
2018-06-01T10:25:20.229Z,23.90
2018-06-01T10:27:47.781Z,23.60
2018-06-01T10:30:15.344Z,23.50
2018-06-01T10:32:42.905Z,23.30
2018-06-01T10:35:10.467Z,23.10
2018-06-01T10:37:41.074Z,23.10
2018-06-01T10:40:08.658Z,23.00
2018-06-01T10:42:36.219Z,22.90
2018-06-01T10:45:03.785Z,22.90
2018-06-01T10:47:31.320Z,23.00
2018-06-01T10:49:59.663Z,23.10
2018-06-01T10:52:27.211Z,23.10
2018-06-01T10:54:54.788Z,23.20
2018-06-01T10:57:22.326Z,23.40
2018-06-01T10:59:51.581Z,23.60
2018-06-01T11:02:19.160Z,23.50
2018-06-01T11:04:46.699Z,23.80
2018-06-01T11:07:14.277Z,23.80
2018-06-01T11:09:41.896Z,23.70
2018-06-01T11:12:16.100Z,23.50
2018-06-01T11:20:30.112Z,22.60
2018-06-01T11:22:57.683Z,22.60
2018-06-01T11:25:25.233Z,22.50
2018-06-01T11:30:46.180Z,22.50
2018-06-01T11:33:13.786Z,22.40
2018-06-01T11:35:41.347Z,22.30
2018-06-01T11:38:08.895Z,22.40
2018-06-01T11:40:36.467Z,22.40
2018-06-01T11:43:04.014Z,22.70
2018-06-01T11:45:31.594Z,23.20
2018-06-01T11:47:59.161Z,23.50
2018-06-01T11:50:37.151Z,23.60
2018-06-01T11:53:04.716Z,23.80
2018-06-01T11:55:32.270Z,24.20
2018-06-01T11:57:59.844Z,24.30
2018-06-01T12:00:27.393Z,24.40
2018-06-01T12:02:54.952Z,24.40
2018-06-01T12:05:25.637Z,24.20
2018-06-01T12:07:53.980Z,23.80
2018-06-01T12:10:21.574Z,23.80
2018-06-01T12:12:49.896Z,23.30
2018-06-01T12:15:17.465Z,23.20
2018-06-01T12:17:45.156Z,23.40
2018-06-01T12:20:12.637Z,23.30
2018-06-01T12:22:40.957Z,23.10
2018-06-01T12:25:08.795Z,23.10
2018-06-01T12:27:37.122Z,23.50
2018-06-01T12:30:04.702Z,23.50
2018-06-01T12:32:32.277Z,23.70
2018-06-01T12:35:00.606Z,23.90
2018-06-01T12:37:28.190Z,23.80
2018-06-01T12:39:55.782Z,23.90
2018-06-01T12:42:24.093Z,24.20
2018-06-01T12:45:02.297Z,24.20
2018-06-01T12:47:29.847Z,24.50
2018-06-01T12:49:57.393Z,24.80
2018-06-01T12:52:24.960Z,24.60
2018-06-01T12:54:52.513Z,24.80
2018-06-01T12:57:20.076Z,25.00
2018-06-01T12:59:47.665Z,25.00
2018-06-01T13:02:15.248Z,24.80
2018-06-01T13:04:42.803Z,25.00
2018-06-01T13:07:11.254Z,24.90
2018-06-01T13:09:38.818Z,24.90
2018-06-01T13:12:06.377Z,24.60
2018-06-01T13:14:33.944Z,24.60
2018-06-01T13:17:01.623Z,24.60
2018-06-01T13:19:48.377Z,24.70
2018-06-01T13:22:15.938Z,24.80
2018-06-01T13:24:44.245Z,24.60
2018-06-01T13:27:26.415Z,24.60
2018-06-01T13:29:54.075Z,24.90
2018-06-01T13:32:21.618Z,25.20
2018-06-01T13:34:49.949Z,25.20
2018-06-01T13:37:17.490Z,25.20
2018-06-01T13:39:45.070Z,25.20
2018-06-01T13:42:12.610Z,25.10
2018-06-01T13:44:40.183Z,25.50
2018-06-01T13:47:07.742Z,25.60
2018-06-01T13:49:35.291Z,26.00
2018-06-01T13:52:02.861Z,26.00
2018-06-01T13:54:31.139Z,26.00
2018-06-01T13:56:58.718Z,26.20
2018-06-01T13:59:26.271Z,26.20
2018-06-01T14:01:53.901Z,25.80
2018-06-01T14:04:21.501Z,25.90
2018-06-01T14:06:49.045Z,26.10
2018-06-01T14:09:16.796Z,26.40
2018-06-01T14:11:45.086Z,26.30
2018-06-01T14:14:12.645Z,26.30
2018-06-01T14:16:40.227Z,26.40
2018-06-01T14:19:07.821Z,26.40
2018-06-01T14:21:36.158Z,25.90
2018-06-01T14:24:03.730Z,25.90
2018-06-01T14:26:31.301Z,25.70
2018-06-01T14:28:59.641Z,24.90
2018-06-01T14:31:27.184Z,24.90
2018-06-01T14:33:54.749Z,24.50
2018-06-01T14:36:22.292Z,24.10
2018-06-01T14:38:49.922Z,24.30
2018-06-01T14:41:20.366Z,25.30
2018-06-01T14:43:47.976Z,25.30
2018-06-01T14:46:24.087Z,25.40
2018-06-01T14:49:12.106Z,25.80
2018-06-01T14:51:53.301Z,25.20
2018-06-01T14:54:20.929Z,25.20
2018-06-01T14:56:55.031Z,24.90
2018-06-01T14:59:34.537Z,24.40
2018-06-01T15:02:02.105Z,24.40
2018-06-01T15:04:29.693Z,24.10
2018-06-01T15:09:57.506Z,24.30
2018-06-01T15:12:25.838Z,25.30
2018-06-01T15:14:53.396Z,25.30
2018-06-01T15:17:24.948Z,25.80
2018-06-01T15:19:52.489Z,25.90
2018-06-01T15:22:20.034Z,26.30
2018-06-01T15:24:47.598Z,26.60
2018-06-01T15:27:15.137Z,26.70
2018-06-01T15:29:43.477Z,26.50
2018-06-01T15:32:11.022Z,26.50
2018-06-01T15:34:38.566Z,26.30
2018-06-01T15:37:06.135Z,26.00
2018-06-01T15:39:33.675Z,25.40
2018-06-01T15:42:01.248Z,24.80
2018-06-01T15:44:28.793Z,24.30
2018-06-01T15:46:56.339Z,23.90
2018-06-01T15:49:24.680Z,23.70
2018-06-01T15:51:52.222Z,23.60
2018-06-01T15:54:19.773Z,23.60
2018-06-01T15:56:47.337Z,23.70
2018-06-01T15:59:14.873Z,23.70
2018-06-01T16:01:42.442Z,23.70
2018-06-01T16:04:09.986Z,23.60
2018-06-01T16:06:44.082Z,23.60
2018-06-01T16:09:12.389Z,23.40
2018-06-01T16:11:39.933Z,23.40
2018-06-01T16:14:07.493Z,23.40
2018-06-01T16:16:35.031Z,23.50
2018-06-01T16:19:02.594Z,23.40
2018-06-01T16:21:30.921Z,23.40
2018-06-01T16:23:58.486Z,23.40
2018-06-01T16:26:26.066Z,23.30
2018-06-01T16:28:53.612Z,23.30
2018-06-01T16:31:24.751Z,23.30
2018-06-01T16:33:52.309Z,23.50
2018-06-01T16:36:19.874Z,23.30
2018-06-01T16:38:47.417Z,23.00
2018-06-01T16:41:14.984Z,23.00
2018-06-01T16:43:42.538Z,23.20
2018-06-01T16:49:08.748Z,24.20
2018-06-01T16:51:36.317Z,24.60
2018-06-01T16:54:12.040Z,24.30
2018-06-01T16:56:40.402Z,24.30
2018-06-01T16:59:13.711Z,24.30
2018-06-01T17:01:42.061Z,24.90
2018-06-01T17:04:09.617Z,24.90
2018-06-01T17:06:47.881Z,24.80
2018-06-01T17:09:15.417Z,25.20
2018-06-01T17:11:43.750Z,24.70
2018-06-01T17:14:11.361Z,24.70
2018-06-01T17:16:39.669Z,24.60
2018-06-01T17:19:07.216Z,24.60
2018-06-01T17:21:34.841Z,24.20
2018-06-01T17:24:03.169Z,24.10
2018-06-01T17:26:30.764Z,24.10
2018-06-01T17:28:58.328Z,23.80
2018-06-01T17:31:26.851Z,23.30
2018-06-01T17:33:54.433Z,23.30
2018-06-01T17:36:21.980Z,23.20
2018-06-01T17:38:49.537Z,23.10
2018-06-01T17:41:17.117Z,23.00
2018-06-01T17:43:44.668Z,22.90
2018-06-01T17:46:12.212Z,22.70
2018-06-01T17:48:39.784Z,22.30
2018-06-01T17:51:10.919Z,22.10
2018-06-01T17:53:38.464Z,22.10
2018-06-01T17:56:06.037Z,21.80
2018-06-01T17:58:33.572Z,21.70
2018-06-01T18:01:01.876Z,21.50
2018-06-01T18:03:29.445Z,21.50
2018-06-01T18:05:56.988Z,21.40
2018-06-01T18:08:24.549Z,21.30
2018-06-01T18:10:52.096Z,21.30
2018-06-01T18:13:19.769Z,21.20
2018-06-01T18:15:47.400Z,21.10
2018-06-01T18:18:15.730Z,21.00
2018-06-01T18:20:43.268Z,20.90
2018-06-01T18:23:10.843Z,20.90
2018-06-01T18:25:38.389Z,20.80
2018-06-01T18:28:05.958Z,20.70
2018-06-01T18:30:33.501Z,20.70
2018-06-01T18:33:01.074Z,20.60
2018-06-01T18:35:28.626Z,20.50
2018-06-01T18:37:56.197Z,20.40
2018-06-01T18:40:23.740Z,20.30
2018-06-01T18:42:51.311Z,20.20
2018-06-01T18:45:18.852Z,20.20
2018-06-01T18:47:46.421Z,20.20
2018-06-01T18:50:13.967Z,20.10
2018-06-01T18:52:41.548Z,20.10
2018-06-01T18:55:09.088Z,20.00
2018-06-01T18:57:36.671Z,20.00
2018-06-01T19:00:04.247Z,20.00
2018-06-01T19:02:31.813Z,20.00
2018-06-01T19:04:59.366Z,19.90
2018-06-01T19:07:26.934Z,19.80
2018-06-01T19:09:54.484Z,19.80
2018-06-01T19:12:22.053Z,19.70
2018-06-01T19:14:50.454Z,19.80
2018-06-01T19:17:18.037Z,19.70
2018-06-01T19:19:46.332Z,19.70
2018-06-01T19:22:13.898Z,19.70
2018-06-01T19:24:41.441Z,19.70
2018-06-01T19:27:09.018Z,19.70
2018-06-01T19:29:36.585Z,19.70
2018-06-01T19:32:04.153Z,19.60
2018-06-01T19:34:37.069Z,19.50
2018-06-01T19:37:04.539Z,19.50
2018-06-01T19:39:32.865Z,19.40
2018-06-01T19:42:01.199Z,19.40
2018-06-01T19:44:29.499Z,19.20
2018-06-01T19:46:57.142Z,19.30
2018-06-01T19:49:24.725Z,19.20
2018-06-01T19:51:52.324Z,19.10
2018-06-01T19:54:20.702Z,19.00
2018-06-01T19:56:48.269Z,19.00
2018-06-01T19:59:15.818Z,18.90
2018-06-01T20:01:47.127Z,18.90
2018-06-01T20:04:15.556Z,18.90
2018-06-01T20:06:43.106Z,18.90
2018-06-01T20:09:16.069Z,18.80
2018-06-01T20:11:43.620Z,18.80
2018-06-01T20:14:11.204Z,18.80
2018-06-01T20:16:38.774Z,18.80
2018-06-01T20:19:06.339Z,18.70
2018-06-01T20:21:33.891Z,18.70
2018-06-01T20:24:02.241Z,18.60
2018-06-01T20:26:29.789Z,18.60
2018-06-01T20:28:57.343Z,18.60
2018-06-01T20:31:24.922Z,18.60
2018-06-01T20:33:52.480Z,18.50
2018-06-01T20:36:20.026Z,18.50
2018-06-01T20:38:47.605Z,18.40
2018-06-01T20:41:15.157Z,18.40
2018-06-01T20:43:42.708Z,18.30
2018-06-01T20:46:10.271Z,18.30
2018-06-01T20:48:37.819Z,18.30
2018-06-01T20:51:05.361Z,18.20
2018-06-01T20:53:33.712Z,18.10
2018-06-01T20:56:01.326Z,18.10
2018-06-01T20:58:28.880Z,18.10
2018-06-01T21:00:56.475Z,18.10
2018-06-01T21:03:24.789Z,18.00
2018-06-01T21:06:01.403Z,17.90
2018-06-01T21:08:28.962Z,17.90
2018-06-01T21:10:56.513Z,17.90
2018-06-01T21:13:24.101Z,17.90
2018-06-01T21:15:51.644Z,17.90
2018-06-01T21:18:19.204Z,17.80
2018-06-01T21:20:46.776Z,17.80
2018-06-01T21:23:14.319Z,17.70
2018-06-01T21:25:49.334Z,17.60
2018-06-01T21:28:18.016Z,17.60
2018-06-01T21:30:48.996Z,17.50
2018-06-01T21:33:16.760Z,17.50
2018-06-01T21:35:44.307Z,17.40
2018-06-01T21:38:12.092Z,17.30
2018-06-01T21:40:52.346Z,17.20
2018-06-01T21:43:19.954Z,17.20
2018-06-01T21:46:02.673Z,17.10
2018-06-01T21:48:51.168Z,17.10
2018-06-01T21:51:21.767Z,17.10
2018-06-01T21:53:55.142Z,17.10
2018-06-01T21:56:23.446Z,17.00
2018-06-01T21:58:50.984Z,17.00
2018-06-01T22:01:24.381Z,17.00
2018-06-01T22:03:51.926Z,16.90
2018-06-01T22:06:20.238Z,16.80
2018-06-01T22:08:47.814Z,16.80
2018-06-01T22:17:01.777Z,16.70
2018-06-01T22:19:39.556Z,16.70
2018-06-01T22:22:07.100Z,16.70
2018-06-01T22:24:35.417Z,16.70
2018-06-01T22:27:02.990Z,16.60
2018-06-01T22:29:30.533Z,16.70
2018-06-01T22:31:58.077Z,16.70
2018-06-01T22:34:29.857Z,16.70
2018-06-01T22:36:57.402Z,16.70
2018-06-01T22:39:24.954Z,16.60
2018-06-01T22:41:52.521Z,16.50
2018-06-01T22:44:20.069Z,16.50
2018-06-01T22:46:47.617Z,16.50
2018-06-01T22:49:15.181Z,16.40
2018-06-01T22:51:42.731Z,16.40
2018-06-01T22:54:11.043Z,16.40
2018-06-01T22:56:38.633Z,16.40
2018-06-01T22:59:06.180Z,16.40
2018-06-01T23:01:33.733Z,16.40
2018-06-01T23:04:01.301Z,16.40
2018-06-01T23:06:28.857Z,16.40
2018-06-01T23:08:56.416Z,16.30
2018-06-01T23:11:23.993Z,16.30
2018-06-01T23:13:51.542Z,16.30
2018-06-01T23:16:19.092Z,16.30
2018-06-01T23:19:04.099Z,16.20
2018-06-01T23:21:32.406Z,16.20
2018-06-01T23:23:59.966Z,16.10
2018-06-01T23:26:27.542Z,16.20
2018-06-01T23:28:55.091Z,16.10
2018-06-01T23:31:22.672Z,16.10
2018-06-01T23:33:51.018Z,16.10
2018-06-01T23:39:12.125Z,16.10
2018-06-01T23:41:40.440Z,16.00
2018-06-01T23:44:07.992Z,16.00
2018-06-01T23:46:35.570Z,16.00
2018-06-01T23:49:09.473Z,16.00
2018-06-01T23:51:37.058Z,16.10
2018-06-01T23:54:04.630Z,16.10
2018-06-01T23:56:49.332Z,16.00
2018-06-01T23:59:16.882Z,16.10
